Time;durP1;ratioP1;P1;durP2;ratioP2;P2;SDS_P1;SDS_P2;PMS_P1;PMS_P2;Temp;Humidity;BMP_temperature;BMP_pressure;BME280_temperature;BME280_humidity;BME280_pressure;Samples;Min_cycle;Max_cycle;Signal;HPM_P1;HPM_P2
2021/01/26 00:00:15;;;;;;;36.83;22.92;;;;;;;-0.27;81.52;100664.06;10300815;28;20067;-70
2021/01/26 00:05:12;;;;;;;43.38;25.33;;;;;;;-0.29;81.52;100660.81;10290972;28;20126;-66
2021/01/26 00:10:11;;;;;;;41.10;23.45;;;;;;;-0.35;81.63;100664.47;10292139;28;20048;-69
2021/01/26 00:15:08;;;;;;;41.15;24.55;;;;;;;-0.43;81.79;100664.91;10293898;28;20047;-68
2021/01/26 00:20:12;;;;;;;40.65;26.27;;;;;;;-0.47;81.72;100674.50;10300123;28;20591;-67
2021/01/26 00:25:10;;;;;;;45.67;25.17;;;;;;;-0.55;82.21;100666.88;10290222;28;20052;-67
2021/01/26 00:30:09;;;;;;;41.63;25.55;;;;;;;-0.51;82.25;100673.38;10293868;28;20129;-70
2021/01/26 00:35:05;;;;;;;45.80;25.92;;;;;;;-0.54;81.99;100676.56;10286893;28;20055;-70
2021/01/26 00:40:03;;;;;;;47.20;26.73;;;;;;;-0.54;82.00;100673.88;10283069;28;20056;-69
2021/01/26 00:45:00;;;;;;;39.92;24.92;;;;;;;-0.60;82.12;100680.22;10304048;28;20106;-69
2021/01/26 00:49:56;;;;;;;47.75;28.63;;;;;;;-0.62;81.79;100682.34;10287757;28;20048;-69
2021/01/26 00:54:52;;;;;;;40.95;24.85;;;;;;;-0.65;81.90;100692.53;10297412;28;20071;-69
2021/01/26 00:59:49;;;;;;;52.83;28.50;;;;;;;-0.67;81.57;100697.31;10282572;28;20143;-68
2021/01/26 01:04:46;;;;;;;42.28;25.52;;;;;;;-0.74;81.81;100698.50;10291829;28;20056;-68
2021/01/26 01:09:45;;;;;;;49.88;26.95;;;;;;;-0.74;81.66;100690.47;10294283;28;20600;-69
2021/01/26 01:14:41;;;;;;;45.60;26.35;;;;;;;-0.75;81.85;100689.66;10296024;28;20742;-68
2021/01/26 01:19:37;;;;;;;43.63;26.13;;;;;;;-0.81;81.75;100696.00;10286824;28;20446;-68
2021/01/26 01:24:33;;;;;;;43.40;26.05;;;;;;;-0.81;81.78;100701.38;10291640;28;20057;-68
2021/01/26 01:29:31;;;;;;;43.95;26.80;;;;;;;-0.86;82.07;100696.75;10278943;28;20040;-68
2021/01/26 01:34:27;;;;;;;48.92;27.30;;;;;;;-0.85;82.01;100694.88;10289076;28;20402;-68
2021/01/26 01:39:23;;;;;;;46.55;26.75;;;;;;;-0.88;82.03;100700.72;10293563;28;20075;-68
2021/01/26 01:44:19;;;;;;;48.35;27.52;;;;;;;-0.90;81.46;100700.97;10295389;28;20498;-69
2021/01/26 01:49:23;;;;;;;42.25;27.25;;;;;;;-0.92;81.79;100700.38;10287644;28;20064;-67
2021/01/26 01:54:27;;;;;;;50.03;27.30;;;;;;;-0.96;81.80;100706.47;10289550;28;20084;-69
2021/01/26 01:59:25;;;;;;;;;;;;;;;-0.95;81.75;100705.41;10297706;28;20048;-69
2021/01/26 02:04:24;;;;;;;44.35;25.55;;;;;;;-1.04;81.70;100706.84;10282072;28;20378;-69
2021/01/26 02:09:25;;;;;;;46.53;27.45;;;;;;;-1.04;81.79;100712.22;10296642;28;20049;-69
2021/01/26 02:14:24;;;;;;;51.30;27.60;;;;;;;-1.09;81.67;100716.47;10297928;28;20068;-69
2021/01/26 02:20:05;;;;;;;45.13;28.15;;;;;;;-1.07;81.73;100714.34;10298951;28;20055;-70
2021/01/26 02:25:34;;;;;;;48.78;28.88;;;;;;;-1.11;81.73;100718.56;10296971;28;20486;-70
2021/01/26 02:30:30;;;;;;;47.22;29.65;;;;;;;-1.12;81.82;100730.34;10292727;28;20048;-70
2021/01/26 02:35:50;;;;;;;44.58;27.35;;;;;;;-1.15;81.64;100733.50;10303815;28;20406;-67
2021/01/26 02:41:02;;;;;;;52.15;28.30;;;;;;;-1.14;81.44;100735.16;10299474;28;20064;-67
2021/01/26 02:46:15;;;;;;;50.40;28.50;;;;;;;-1.06;81.74;100732.06;10302678;28;20067;-67
2021/01/26 02:51:22;;;;;;;48.73;29.70;;;;;;;-0.93;82.21;100741.72;10294548;28;20095;-67
2021/01/26 02:56:36;;;;;;;55.05;31.58;;;;;;;-0.77;82.65;100748.16;10294217;28;20517;-70
2021/01/26 03:01:38;;;;;;;47.10;28.33;;;;;;;-0.64;82.67;100745.16;10291798;28;20080;-70
2021/01/26 03:06:36;;;;;;;47.88;30.00;;;;;;;-0.54;82.62;100751.75;10297811;28;20052;-70
2021/01/26 03:11:39;;;;;;;48.95;30.50;;;;;;;-0.37;83.08;100759.81;10305478;28;20040;-71
2021/01/26 03:16:36;;;;;;;45.97;29.92;;;;;;;-0.25;83.01;100758.69;10300875;28;20041;-66
2021/01/26 03:21:36;;;;;;;50.55;29.55;;;;;;;-0.10;82.70;100760.00;10303555;28;20135;-68
2021/01/26 03:26:34;;;;;;;48.38;30.67;;;;;;;0.01;82.29;100767.16;10304554;28;20060;-67
2021/01/26 03:31:46;;;;;;;44.90;29.23;;;;;;;-0.02;82.61;100778.41;10300286;28;20501;-68
2021/01/26 03:36:42;;;;;;;53.72;32.30;;;;;;;0.06;82.70;100783.34;10304377;28;20094;-67
2021/01/26 03:41:39;;;;;;;48.50;31.95;;;;;;;0.04;82.53;100782.78;10289729;28;20098;-68
2021/01/26 03:46:47;;;;;;;52.00;31.80;;;;;;;0.12;82.62;100782.38;10300480;28;20045;-67
2021/01/26 03:52:01;;;;;;;55.53;30.70;;;;;;;0.19;82.53;100780.31;10291735;28;20041;-69
2021/01/26 03:57:29;;;;;;;54.53;34.42;;;;;;;0.24;82.18;100781.47;10294315;28;20091;-69
2021/01/26 04:02:32;;;;;;;45.95;28.95;;;;;;;0.17;82.14;100787.81;10294726;28;20055;-69
2021/01/26 04:07:48;;;;;;;45.53;29.48;;;;;;;0.23;82.29;100782.50;10298104;28;20058;-69
2021/01/26 04:12:47;;;;;;;48.90;30.20;;;;;;;0.23;82.52;100802.16;10290987;28;20048;-67
2021/01/26 04:17:47;;;;;;;47.45;30.55;;;;;;;0.22;82.55;100802.41;10301089;28;20452;-67
2021/01/26 04:22:43;;;;;;;48.38;31.50;;;;;;;0.26;82.47;100807.06;10289494;28;20135;-67
2021/01/26 04:27:39;;;;;;;52.50;31.20;;;;;;;0.32;82.41;100813.31;10278052;28;20044;-68
2021/01/26 04:32:36;;;;;;;53.17;31.60;;;;;;;0.30;82.25;100801.97;10298778;28;20417;-68
2021/01/26 04:37:32;;;;;;;52.95;31.25;;;;;;;0.29;82.78;100806.53;10295918;28;20044;-69
2021/01/26 04:42:32;;;;;;;53.25;32.45;;;;;;;0.39;82.10;100812.06;10299264;28;20041;-69
2021/01/26 04:47:36;;;;;;;50.75;32.33;;;;;;;0.38;82.16;100820.41;10281670;28;20457;-69
2021/01/26 04:53:09;;;;;;;51.78;30.90;;;;;;;0.40;82.23;100826.34;10296758;28;20558;-68
2021/01/26 04:58:15;;;;;;;49.40;30.77;;;;;;;0.44;82.07;100840.09;10293805;28;20098;-67
2021/01/26 05:03:36;;;;;;;51.42;31.50;;;;;;;0.44;82.23;100842.78;10291091;28;20575;-68
2021/01/26 05:08:36;;;;;;;49.65;30.05;;;;;;;0.39;82.02;100832.75;10297064;28;20671;-70
2021/01/26 05:13:42;;;;;;;51.10;30.38;;;;;;;0.30;81.39;100840.47;10293921;28;20041;-70
2021/01/26 05:18:41;;;;;;;48.28;30.02;;;;;;;0.26;81.18;100849.28;10282979;28;20060;-71
2021/01/26 05:23:51;;;;;;;46.08;30.38;;;;;;;0.18;81.08;100848.59;10286910;28;20080;-70
2021/01/26 05:28:49;;;;;;;46.58;30.60;;;;;;;0.07;81.36;100852.22;10293679;28;20053;-70
2021/01/26 05:33:45;;;;;;;47.45;29.02;;;;;;;-0.05;80.91;100859.50;10292763;28;20110;-68
2021/01/26 05:38:42;;;;;;;50.88;30.33;;;;;;;-0.13;81.22;100857.25;10303496;28;20438;-67
2021/01/26 05:43:38;;;;;;;47.50;28.80;;;;;;;-0.24;81.08;100867.81;10293572;28;20048;-67
2021/01/26 05:48:49;;;;;;;52.58;30.90;;;;;;;-0.24;80.80;100878.53;10292959;28;20066;-67
2021/01/26 05:53:54;;;;;;;53.83;31.23;;;;;;;-0.32;81.04;100876.28;10292700;28;20532;-67
2021/01/26 05:58:51;;;;;;;51.42;29.58;;;;;;;-0.37;80.79;100895.00;10300473;28;20069;-66
2021/01/26 06:04:04;;;;;;;48.30;30.70;;;;;;;-0.44;80.70;100895.13;10301531;28;20052;-67
2021/01/26 06:09:00;;;;;;;53.13;31.30;;;;;;;-0.48;80.14;100906.59;10297528;28;20470;-66
2021/01/26 06:14:14;;;;;;;53.42;32.13;;;;;;;-0.59;80.69;100912.81;10302581;28;20051;-68
2021/01/26 06:19:14;;;;;;;60.00;33.20;;;;;;;-0.68;81.18;100915.88;10301449;28;20771;-68
2021/01/26 06:24:19;;;;;;;52.47;31.63;;;;;;;-0.79;81.00;100914.06;10293150;28;20205;-70
2021/01/26 06:29:27;;;;;;;55.22;31.92;;;;;;;-0.84;81.26;100916.63;10293852;28;20044;-68
2021/01/26 06:34:50;;;;;;;57.15;30.55;;;;;;;-0.78;80.79;100921.03;10301226;28;20048;-70
2021/01/26 06:39:54;;;;;;;51.05;29.95;;;;;;;-0.79;81.05;100918.59;10291018;28;20126;-69
2021/01/26 06:45:02;;;;;;;49.85;29.45;;;;;;;-0.82;80.61;100919.88;10285187;28;20049;-66
2021/01/26 06:50:24;;;;;;;52.30;30.98;;;;;;;-0.88;80.76;100931.59;10288894;28;20129;-69
2021/01/26 06:55:48;;;;;;;49.70;29.67;;;;;;;-0.99;81.08;100945.84;10300977;28;20078;-67
2021/01/26 07:01:21;;;;;;;56.83;31.75;;;;;;;-1.03;81.36;100960.78;10286967;28;20196;-66
2021/01/26 07:06:32;;;;;;;52.05;30.90;;;;;;;-1.03;81.84;100971.50;10289271;28;20081;-67
2021/01/26 07:11:38;;;;;;;50.03;31.45;;;;;;;-1.04;81.50;100991.31;10292836;28;20454;-68
2021/01/26 07:16:43;;;;;;;51.53;30.48;;;;;;;-1.02;81.89;100999.97;10288884;28;20076;-67
2021/01/26 07:22:21;;;;;;;52.90;30.92;;;;;;;-1.01;82.07;101012.34;10292617;28;20093;-67
2021/01/26 07:27:29;;;;;;;54.45;31.70;;;;;;;-0.93;82.15;101020.88;10283257;28;20544;-64
2021/01/26 07:32:51;;;;;;;55.55;32.13;;;;;;;-0.97;82.58;101025.06;10297467;28;20506;-68
2021/01/26 07:37:59;;;;;;;52.83;31.83;;;;;;;-0.99;82.64;101021.81;10301746;28;20045;-68
2021/01/26 07:43:04;;;;;;;51.78;31.02;;;;;;;-0.84;83.14;101034.75;10294633;28;20051;-68
2021/01/26 07:48:12;;;;;;;58.92;33.50;;;;;;;-0.61;83.87;101027.72;10288481;28;20136;-66
2021/01/26 07:53:17;;;;;;;61.38;35.42;;;;;;;-0.42;84.29;101029.19;10300703;28;20460;-64
2021/01/26 07:58:15;;;;;;;51.90;28.95;;;;;;;-0.27;83.80;101034.91;10293058;28;20060;-68
2021/01/26 08:03:12;;;;;;;56.75;31.15;;;;;;;-0.25;83.59;101038.16;10287846;28;20071;-68
2021/01/26 08:08:17;;;;;;;51.42;32.90;;;;;;;-0.01;83.46;101046.16;10293184;28;20414;-68
2021/01/26 08:13:26;;;;;;;54.83;33.17;;;;;;;0.02;83.32;101058.31;10294816;28;20151;-68
2021/01/26 08:18:31;;;;;;;53.45;32.47;;;;;;;0.06;83.10;101065.66;10291447;28;20738;-66
2021/01/26 08:23:30;;;;;;;55.88;33.58;;;;;;;0.15;82.65;101068.78;10286069;28;20048;-68
2021/01/26 08:28:39;;;;;;;58.53;33.53;;;;;;;0.14;82.51;101077.88;10291543;28;20040;-68
2021/01/26 08:33:35;;;;;;;55.80;33.67;;;;;;;0.17;82.58;101089.00;10293571;28;20068;-65
2021/01/26 08:38:52;;;;;;;53.67;31.88;;;;;;;0.17;82.75;101089.00;10284406;28;20082;-65
2021/01/26 08:43:48;;;;;;;56.33;34.08;;;;;;;0.24;82.92;101088.84;10294333;28;20062;-69
2021/01/26 08:48:57;;;;;;;56.97;35.25;;;;;;;0.48;82.69;101089.56;10288648;28;20538;-68
2021/01/26 08:53:53;;;;;;;61.25;34.33;;;;;;;0.56;82.66;101097.25;10290331;28;20063;-68
2021/01/26 08:58:53;;;;;;;55.83;33.25;;;;;;;0.65;82.50;101104.91;10274546;28;20049;-68
2021/01/26 09:03:51;;;;;;;63.20;36.22;;;;;;;0.88;82.43;101115.56;10292099;28;20072;-69
2021/01/26 09:08:49;;;;;;;58.80;34.45;;;;;;;1.00;82.23;101124.41;10282467;28;20091;-69
2021/01/26 09:13:47;;;;;;;59.80;34.10;;;;;;;1.00;82.32;101131.66;10298888;28;20032;-69
2021/01/26 09:18:43;;;;;;;56.63;35.22;;;;;;;1.08;82.00;101141.22;10305710;28;20052;-65
2021/01/26 09:23:44;;;;;;;55.72;35.33;;;;;;;1.00;82.03;101140.56;10293370;28;20037;-68
2021/01/26 09:28:43;;;;;;;56.17;34.65;;;;;;;0.94;82.58;101136.13;10295025;28;20086;-68
2021/01/26 09:33:39;;;;;;;57.88;34.05;;;;;;;1.19;82.42;101153.78;10305687;28;20533;-67
2021/01/26 09:38:41;;;;;;;54.42;33.50;;;;;;;1.16;81.93;101160.47;10291016;28;20526;-68
2021/01/26 09:43:40;;;;;;;48.95;28.55;;;;;;;1.14;82.14;101167.16;10297536;28;20119;-68
2021/01/26 09:48:57;;;;;;;50.22;30.92;;;;;;;1.25;82.14;101171.66;10300242;28;20044;-68
2021/01/26 09:54:02;;;;;;;49.90;30.63;;;;;;;1.36;81.42;101162.69;10296802;28;20103;-68
2021/01/26 09:58:58;;;;;;;52.75;30.60;;;;;;;1.48;80.88;101167.97;10284140;28;20069;-67
2021/01/26 10:04:03;;;;;;;46.58;29.45;;;;;;;1.60;80.50;101170.56;10301803;28;20052;-67
2021/01/26 10:09:37;;;;;;;45.78;30.42;;;;;;;1.80;80.37;101164.69;10301088;28;20106;-69
2021/01/26 10:14:33;;;;;;;45.15;27.10;;;;;;;2.02;79.81;101170.09;10314697;28;20448;-70
2021/01/26 10:19:33;;;;;;;43.13;26.55;;;;;;;1.82;79.36;101174.16;10297399;28;20045;-68
2021/01/26 10:24:33;;;;;;;45.05;26.52;;;;;;;1.83;79.32;101183.88;10292912;28;20067;-68
2021/01/26 10:29:40;;;;;;;44.55;26.52;;;;;;;1.98;79.09;101188.66;10298455;28;20497;-68
2021/01/26 10:34:42;;;;;;;40.80;24.23;;;;;;;2.27;79.09;101192.00;10293589;28;20090;-69
2021/01/26 10:39:40;;;;;;;33.97;22.15;;;;;;;2.58;77.78;101197.78;10291715;28;20097;-69
2021/01/26 10:44:47;;;;;;;35.85;22.75;;;;;;;2.46;77.53;101194.38;10295401;28;20051;-66
2021/01/26 10:49:53;;;;;;;32.33;21.65;;;;;;;2.55;77.81;101198.28;10294957;28;20045;-62
2021/01/26 10:54:50;;;;;;;32.47;20.60;;;;;;;2.53;77.05;101192.34;10306724;28;20059;-68
2021/01/26 10:59:46;;;;;;;33.67;19.13;;;;;;;2.82;76.22;101184.81;10298278;28;20056;-69
2021/01/26 11:04:42;;;;;;;34.17;18.55;;;;;;;2.87;76.07;101189.44;10292135;28;20033;-66
2021/01/26 11:09:38;;;;;;;30.15;18.83;;;;;;;2.91;76.35;101187.88;10286437;28;20053;-69
2021/01/26 11:14:34;;;;;;;27.98;17.23;;;;;;;3.07;75.59;101189.66;10279649;28;20036;-68
2021/01/26 11:19:32;;;;;;;25.58;17.92;;;;;;;3.47;74.96;101193.78;10288086;28;20139;-69
2021/01/26 11:24:30;;;;;;;28.10;17.52;;;;;;;3.51;74.39;101211.13;10279237;28;20065;-69
2021/01/26 11:29:26;;;;;;;28.02;16.70;;;;;;;3.35;74.19;101214.75;10274719;28;20041;-68
2021/01/26 11:34:22;;;;;;;27.48;17.25;;;;;;;3.50;74.58;101214.06;10281528;28;20049;-67
2021/01/26 11:39:18;;;;;;;26.58;16.73;;;;;;;3.40;74.41;101214.00;10281016;28;20514;-67
2021/01/26 11:44:14;;;;;;;21.60;14.52;;;;;;;3.57;74.05;101215.50;10278764;28;20088;-68
2021/01/26 11:49:10;;;;;;;20.00;11.68;;;;;;;3.42;74.41;101228.88;10279645;28;20501;-68
2021/01/26 11:54:06;;;;;;;21.30;13.05;;;;;;;3.16;75.53;101231.34;10302215;28;20498;-68
2021/01/26 11:59:02;;;;;;;19.27;12.23;;;;;;;2.88;76.65;101228.91;10280671;28;20052;-68
2021/01/26 12:04:01;;;;;;;24.52;14.50;;;;;;;3.09;76.46;101214.53;10284132;28;20037;-69
2021/01/26 12:08:58;;;;;;;22.48;14.88;;;;;;;3.31;75.88;101222.56;10286471;28;20052;-69
2021/01/26 12:13:54;;;;;;;23.63;15.35;;;;;;;3.23;76.14;101219.53;10284232;28;20053;-69
2021/01/26 12:18:50;;;;;;;24.67;16.08;;;;;;;3.42;76.04;101217.25;10289381;28;20060;-68
2021/01/26 12:23:48;;;;;;;24.23;15.10;;;;;;;3.73;75.55;101213.69;10287590;28;20127;-68
2021/01/26 12:28:47;;;;;;;22.13;14.40;;;;;;;3.71;75.65;101220.44;10286244;28;20053;-68
2021/01/26 12:33:43;;;;;;;21.02;13.38;;;;;;;4.08;74.42;101216.91;10283554;28;20041;-67
2021/01/26 12:38:39;;;;;;;20.30;13.07;;;;;;;4.46;72.84;101206.81;10290459;28;20097;-67
2021/01/26 12:43:35;;;;;;;17.52;11.23;;;;;;;4.76;71.99;101217.75;10291259;28;20047;-69
2021/01/26 12:48:31;;;;;;;14.60;7.40;;;;;;;4.16;72.04;101216.41;10299511;28;20075;-69
2021/01/26 12:53:29;;;;;;;13.77;8.57;;;;;;;4.62;70.97;101220.13;10300633;28;20041;-66
2021/01/26 12:58:25;;;;;;;16.55;8.93;;;;;;;4.21;72.30;101219.94;10279578;28;20059;-69
2021/01/26 13:03:21;;;;;;;12.18;7.13;;;;;;;4.55;71.07;101216.88;10286231;28;20494;-68
2021/01/26 13:08:17;;;;;;;16.80;8.75;;;;;;;4.70;70.56;101216.09;10282979;28;20131;-68
2021/01/26 13:13:14;;;;;;;14.60;8.65;;;;;;;4.68;70.95;101212.81;10290344;28;20050;-68
2021/01/26 13:18:10;;;;;;;15.73;8.93;;;;;;;4.28;71.42;101217.00;10292288;28;20155;-68
2021/01/26 13:23:10;;;;;;;12.95;7.18;;;;;;;3.98;72.58;101215.75;10291245;28;20047;-68
2021/01/26 13:28:06;;;;;;;8.43;3.55;;;;;;;3.80;73.10;101214.28;10287726;28;20044;-67
2021/01/26 13:33:03;;;;;;;14.63;6.38;;;;;;;3.69;74.26;101228.84;10300515;28;20516;-68
2021/01/26 13:37:59;;;;;;;7.63;3.30;;;;;;;3.36;75.76;101240.72;10280804;28;20515;-69
2021/01/26 13:42:56;;;;;;;3.80;1.13;;;;;;;3.02;77.12;101250.91;10284130;28;20048;-67
2021/01/26 13:47:52;;;;;;;4.10;0.90;;;;;;;2.76;79.69;101258.72;10289516;28;20041;-68
2021/01/26 13:52:48;;;;;;;4.25;0.82;;;;;;;2.36;82.01;101264.44;10275022;28;20044;-65
2021/01/26 13:57:45;;;;;;;3.20;0.70;;;;;;;2.27;82.41;101235.16;10288144;28;20044;-69
2021/01/26 14:02:42;;;;;;;4.30;0.60;;;;;;;2.21;82.87;101238.88;10287487;28;20071;-68
2021/01/26 14:07:39;;;;;;;3.45;0.50;;;;;;;2.42;82.21;101249.97;10296749;28;20048;-68
2021/01/26 14:12:36;;;;;;;6.13;0.70;;;;;;;2.64;80.59;101250.75;10303135;28;20613;-69
2021/01/26 14:17:32;;;;;;;4.32;0.60;;;;;;;3.42;79.37;101250.50;10307617;28;20044;-68
2021/01/26 14:22:29;;;;;;;8.13;1.10;;;;;;;3.70;77.66;101257.50;10302684;28;20403;-68
2021/01/26 14:27:25;;;;;;;3.15;0.50;;;;;;;3.85;77.34;101258.69;10292115;28;20861;-68
2021/01/26 14:32:34;;;;;;;8.73;2.42;;;;;;;3.94;76.44;101257.13;10293420;28;20047;-69
2021/01/26 14:37:55;;;;;;;5.70;1.10;;;;;;;3.98;76.85;101264.47;10294836;28;20033;-68
2021/01/26 14:42:52;;;;;;;5.45;1.00;;;;;;;3.82;77.45;101281.66;10293918;28;20148;-68
2021/01/26 14:47:48;;;;;;;5.32;1.10;;;;;;;4.21;75.68;101284.09;10290929;28;20057;-69
2021/01/26 14:52:45;;;;;;;8.60;1.35;;;;;;;3.95;76.44;101302.88;10285160;28;20132;-69
2021/01/26 14:57:41;;;;;;;8.70;1.40;;;;;;;3.62;77.28;101308.53;10292659;28;20070;-68
2021/01/26 15:02:37;;;;;;;6.82;1.10;;;;;;;3.45;77.96;101314.88;10289564;28;20074;-68
2021/01/26 15:07:36;;;;;;;5.43;1.45;;;;;;;3.34;79.31;101323.94;10302124;28;20048;-67
2021/01/26 15:12:32;;;;;;;4.00;0.95;;;;;;;3.16;79.58;101323.22;10295854;28;20071;-68
2021/01/26 15:17:28;;;;;;;7.15;1.30;;;;;;;3.08;79.54;101331.75;10302122;28;20074;-70
2021/01/26 15:22:26;;;;;;;10.52;1.30;;;;;;;3.11;80.40;101336.69;10303676;28;20098;-68
2021/01/26 15:27:22;;;;;;;7.55;1.23;;;;;;;3.00;80.49;101336.81;10289512;28;20052;-66
2021/01/26 15:32:18;;;;;;;10.13;1.50;;;;;;;2.81;80.24;101341.69;10289236;28;20075;-66
2021/01/26 15:37:18;;;;;;;10.30;1.75;;;;;;;2.55;81.41;101357.53;10283774;28;20045;-66
2021/01/26 15:42:16;;;;;;;6.93;1.63;;;;;;;2.60;81.07;101362.19;10287343;28;20490;-67
2021/01/26 15:47:14;;;;;;;9.73;1.60;;;;;;;2.59;81.17;101361.38;10289873;28;20053;-66
2021/01/26 15:52:10;;;;;;;6.40;1.25;;;;;;;2.49;81.06;101363.97;10292240;28;20044;-66
2021/01/26 15:57:06;;;;;;;6.53;1.30;;;;;;;2.30;81.85;101377.72;10284130;28;20045;-68
2021/01/26 16:02:02;;;;;;;10.98;2.05;;;;;;;2.25;82.04;101366.84;10294592;28;20060;-67
2021/01/26 16:06:59;;;;;;;6.32;1.05;;;;;;;2.27;82.05;101367.41;10297460;28;20696;-67
2021/01/26 16:11:54;;;;;;;6.70;1.13;;;;;;;2.25;82.11;101374.94;10291726;28;20037;-67
2021/01/26 16:16:51;;;;;;;9.80;1.30;;;;;;;2.28;81.60;101377.13;10292049;28;20048;-66
2021/01/26 16:21:48;;;;;;;7.63;1.00;;;;;;;2.34;81.51;101379.91;10282106;28;20048;-67
2021/01/26 16:26:45;;;;;;;10.05;1.40;;;;;;;2.37;81.11;101392.91;10274238;28;20084;-66
2021/01/26 16:31:41;;;;;;;5.65;1.25;;;;;;;2.49;81.07;101393.66;10288008;28;20766;-67
2021/01/26 16:36:38;;;;;;;7.45;1.30;;;;;;;2.54;80.90;101391.03;10284545;28;20132;-66
2021/01/26 16:41:33;;;;;;;9.05;1.70;;;;;;;2.44;80.46;101397.09;10288159;28;20068;-67
2021/01/26 16:46:30;;;;;;;6.18;1.30;;;;;;;2.43;80.61;101402.72;10283405;28;20036;-68
2021/01/26 16:51:28;;;;;;;12.63;2.40;;;;;;;2.47;80.49;101403.88;10284054;28;20417;-68
2021/01/26 16:56:24;;;;;;;9.10;1.60;;;;;;;2.48;80.46;101408.19;10290980;28;20061;-67
2021/01/26 17:01:21;;;;;;;7.97;1.73;;;;;;;2.49;80.95;101415.25;10291192;28;20661;-67
2021/01/26 17:06:17;;;;;;;4.10;1.50;;;;;;;2.47;80.81;101411.97;10286116;28;20114;-67
2021/01/26 17:11:13;;;;;;;10.25;1.58;;;;;;;2.41;81.00;101418.34;10282365;28;20048;-67
2021/01/26 17:16:10;;;;;;;7.40;1.40;;;;;;;2.38;81.21;101424.25;10282954;28;20047;-67
2021/01/26 17:21:07;;;;;;;6.38;1.45;;;;;;;2.43;80.55;101421.63;10280910;28;20041;-65
2021/01/26 17:26:03;;;;;;;10.45;2.72;;;;;;;2.48;81.02;101429.78;10276156;28;20053;-67
2021/01/26 17:31:01;;;;;;;7.15;1.80;;;;;;;2.48;81.03;101429.78;10285773;28;20094;-67
2021/01/26 17:36:00;;;;;;;7.43;1.55;;;;;;;2.58;80.27;101440.75;10287490;28;20063;-65
2021/01/26 17:40:56;;;;;;;7.32;1.73;;;;;;;2.55;80.68;101435.84;10286055;28;20068;-66
2021/01/26 17:45:54;;;;;;;11.38;1.92;;;;;;;2.57;80.42;101436.41;10296076;28;20545;-66
2021/01/26 17:50:51;;;;;;;7.43;1.85;;;;;;;2.61;80.02;101432.16;10289277;28;20489;-67
2021/01/26 17:55:47;;;;;;;10.25;1.50;;;;;;;2.59;79.69;101442.38;10286881;28;20068;-68
2021/01/26 18:00:43;;;;;;;6.70;1.48;;;;;;;2.50;79.78;101433.06;10286479;28;20048;-68
2021/01/26 18:05:39;;;;;;;7.18;1.48;;;;;;;2.46;79.38;101434.63;10282465;28;20485;-67
2021/01/26 18:10:35;;;;;;;4.57;1.10;;;;;;;2.43;80.17;101435.13;10282972;28;20542;-68
2021/01/26 18:15:32;;;;;;;9.38;1.40;;;;;;;2.30;79.80;101434.38;10291129;28;20052;-65
2021/01/26 18:20:28;;;;;;;8.85;1.67;;;;;;;2.23;80.00;101447.22;10287350;28;20068;-67
2021/01/26 18:25:26;;;;;;;7.05;1.60;;;;;;;2.31;78.91;101438.72;10285438;28;20053;-65
2021/01/26 18:30:24;;;;;;;6.53;1.88;;;;;;;2.24;78.83;101440.75;10288397;28;20045;-68
2021/01/26 18:35:27;;;;;;;6.60;1.48;;;;;;;2.06;78.84;101449.88;10283199;28;20059;-66
2021/01/26 18:40:24;;;;;;;4.50;1.00;;;;;;;2.09;78.88;101449.41;10286189;28;20064;-67
2021/01/26 18:45:25;;;;;;;9.15;1.50;;;;;;;2.05;78.57;101452.84;10286727;28;20048;-67
2021/01/26 18:50:22;;;;;;;6.88;1.35;;;;;;;2.01;78.36;101449.78;10287665;28;20064;-67
2021/01/26 18:55:23;;;;;;;9.40;2.47;;;;;;;1.92;78.65;101450.44;10287968;28;20054;-67
2021/01/26 19:00:20;;;;;;;10.85;2.35;;;;;;;1.86;78.36;101458.44;10282049;28;20064;-69
2021/01/26 19:05:19;;;;;;;7.80;1.50;;;;;;;1.76;78.07;101455.53;10284423;28;20463;-67
2021/01/26 19:10:19;;;;;;;9.45;1.90;;;;;;;1.80;77.78;101448.59;10283196;28;20060;-66
2021/01/26 19:15:18;;;;;;;9.63;2.63;;;;;;;1.78;78.03;101448.03;10290503;28;20102;-68
2021/01/26 19:20:16;;;;;;;5.38;1.50;;;;;;;1.70;77.43;101451.13;10286964;28;20056;-69
2021/01/26 19:25:13;;;;;;;8.07;1.70;;;;;;;1.69;77.29;101449.47;10286917;28;20141;-69
2021/01/26 19:30:13;;;;;;;10.23;1.98;;;;;;;1.62;77.24;101454.19;10298168;28;20053;-69
2021/01/26 19:35:11;;;;;;;10.10;2.08;;;;;;;1.66;76.88;101455.34;10277540;28;20426;-69
2021/01/26 19:40:08;;;;;;;8.43;2.45;;;;;;;1.64;77.00;101457.47;10284042;28;20049;-66
2021/01/26 19:45:06;;;;;;;7.93;2.70;;;;;;;1.53;77.43;101461.00;10290719;28;20045;-67
2021/01/26 19:50:05;;;;;;;9.02;2.28;;;;;;;1.46;77.62;101466.53;10280894;28;20059;-69
2021/01/26 19:55:02;;;;;;;9.52;2.50;;;;;;;1.50;77.93;101462.31;10282464;28;20044;-69
2021/01/26 19:59:58;;;;;;;8.73;2.25;;;;;;;1.47;77.79;101460.91;10283094;28;20354;-69
2021/01/26 20:04:54;;;;;;;14.45;3.78;;;;;;;1.50;77.00;101461.50;10294933;28;20545;-68
2021/01/26 20:09:51;;;;;;;8.80;2.03;;;;;;;1.42;77.44;101466.22;10290310;28;20128;-68
2021/01/26 20:14:47;;;;;;;11.10;1.70;;;;;;;1.40;77.64;101462.94;10290682;28;20049;-68
2021/01/26 20:19:43;;;;;;;7.65;2.35;;;;;;;1.35;77.81;101457.44;10287811;28;20068;-67
2021/01/26 20:24:40;;;;;;;7.68;1.92;;;;;;;1.29;78.34;101463.75;10281468;28;20055;-68
2021/01/26 20:29:36;;;;;;;11.60;3.45;;;;;;;1.33;78.05;101456.84;10277820;28;20505;-68
2021/01/26 20:34:33;;;;;;;8.85;2.22;;;;;;;1.31;78.54;101458.97;10297584;28;20044;-69
2021/01/26 20:39:30;;;;;;;7.95;2.38;;;;;;;1.20;78.55;101468.69;10276749;28;20049;-68
2021/01/26 20:44:26;;;;;;;7.72;2.53;;;;;;;1.18;78.48;101464.59;10281895;28;20456;-69
2021/01/26 20:49:23;;;;;;;7.78;2.63;;;;;;;1.19;79.16;101460.88;10277120;28;20052;-69
2021/01/26 20:54:19;;;;;;;10.93;3.72;;;;;;;1.12;79.04;101465.56;10287067;28;20109;-69
2021/01/26 20:59:15;;;;;;;12.00;3.10;;;;;;;1.14;79.64;101463.44;10289481;28;20048;-67
2021/01/26 21:04:11;;;;;;;6.97;2.58;;;;;;;1.05;79.50;101463.81;10274096;28;20045;-67
2021/01/26 21:09:07;;;;;;;11.65;3.17;;;;;;;1.07;80.14;101462.75;10281592;28;20043;-69
2021/01/26 21:14:05;;;;;;;11.32;2.90;;;;;;;1.05;80.30;101460.31;10289333;28;20049;-68
2021/01/26 21:19:01;;;;;;;8.00;2.92;;;;;;;0.93;81.11;101462.16;10301126;28;20047;-70
2021/01/26 21:23:57;;;;;;;7.07;2.58;;;;;;;0.96;81.04;101465.22;10298220;28;20118;-71
2021/01/26 21:28:54;;;;;;;7.15;2.80;;;;;;;0.96;81.40;101467.91;10292155;28;20048;-70
2021/01/26 21:33:50;;;;;;;8.73;2.85;;;;;;;0.97;81.52;101476.81;10289826;28;20048;-71
2021/01/26 21:38:47;;;;;;;7.82;3.03;;;;;;;0.97;81.61;101474.91;10303493;28;20048;-72
2021/01/26 21:43:43;;;;;;;10.70;3.33;;;;;;;0.86;81.84;101475.78;10301641;28;20037;-70
2021/01/26 21:48:39;;;;;;;9.43;3.70;;;;;;;0.86;81.98;101483.84;10304905;28;21281;-71
2021/01/26 21:53:35;;;;;;;8.30;3.63;;;;;;;0.89;82.26;101474.47;10294051;28;20128;-69
2021/01/26 21:58:31;;;;;;;8.18;3.75;;;;;;;0.91;82.21;101481.28;10300468;28;20052;-70
2021/01/26 22:03:27;;;;;;;9.23;4.10;;;;;;;0.98;82.50;101476.56;10292988;28;20743;-70
2021/01/26 22:08:23;;;;;;;7.07;3.13;;;;;;;1.16;82.25;101472.09;10301466;28;20158;-71
2021/01/26 22:13:21;;;;;;;10.90;3.65;;;;;;;1.31;81.78;101469.75;10285918;28;20036;-72
2021/01/26 22:18:19;;;;;;;8.57;3.90;;;;;;;1.39;81.84;101472.09;10296160;28;20037;-72
2021/01/26 22:23:15;;;;;;;7.82;3.72;;;;;;;1.43;81.86;101467.84;10297313;28;20044;-71
2021/01/26 22:28:18;;;;;;;11.15;4.53;;;;;;;1.43;81.83;101472.41;10302870;28;20048;-68
2021/01/26 22:33:14;;;;;;;12.82;5.63;;;;;;;1.35;82.11;101457.44;10306029;28;20042;-69
2021/01/26 22:38:11;;;;;;;9.93;4.95;;;;;;;1.31;82.54;101461.66;10306139;28;20484;-72
2021/01/26 22:43:09;;;;;;;7.90;4.85;;;;;;;1.34;82.29;101453.09;10293124;28;20069;-72
2021/01/26 22:48:06;;;;;;;9.38;5.10;;;;;;;1.32;82.79;101460.59;10293284;28;20060;-70
2021/01/26 22:53:03;;;;;;;15.82;6.13;;;;;;;1.29;83.23;101453.00;10298878;28;20049;-69